Time;durP1;ratioP1;P1;durP2;ratioP2;P2;SDS_P1;SDS_P2;PMS_P1;PMS_P2;Temp;Humidity;BMP_temperature;BMP_pressure;BME280_temperature;BME280_humidity;BME280_pressure;Samples;Min_cycle;Max_cycle;Signal;HPM_P1;HPM_P2
2022/09/25 00:01:18;;;;;;;9.10;8.40;;;;;;;;;;1907703;75;26195;-76
2022/09/25 00:03:47;;;;;;;8.57;7.97;;;;;;;;;;1906496;75;26229;-76
2022/09/25 00:06:16;;;;;;;9.10;8.40;;;;;;;;;;1907691;75;26367;-76
2022/09/25 00:08:45;;;;;;;8.87;8.10;;;;;;;;;;1906538;75;26695;-76
2022/09/25 00:11:15;;;;;;;9.37;8.57;;;;;;;;;;1907573;75;26688;-76
2022/09/25 00:13:44;;;;;;;9.27;8.47;;;;;;;;;;1907757;75;26280;-76
2022/09/25 00:16:14;;;;;;;9.80;9.00;;;;;;;;;;1906428;75;26208;-76
2022/09/25 00:21:30;;;;;;;9.80;8.63;;;;;;;;;;1907851;75;26239;-77
2022/09/25 00:24:00;;;;;;;9.43;8.80;;;;;;;;;;1906425;75;26187;-77
2022/09/25 00:26:29;;;;;;;9.30;8.43;;;;;;;;;;1907621;75;26316;-77
2022/09/25 00:28:57;;;;;;;9.43;8.73;;;;;;;;;;1906409;75;26672;-76
2022/09/25 00:31:26;;;;;;;9.27;8.63;;;;;;;;;;1907608;75;26275;-77
2022/09/25 00:33:56;;;;;;;9.40;8.63;;;;;;;;;;1906415;75;26261;-76
2022/09/25 00:36:24;;;;;;;8.87;8.20;;;;;;;;;;1907800;75;26270;-76
2022/09/25 00:38:53;;;;;;;8.37;7.80;;;;;;;;;;1907746;75;26198;-76
2022/09/25 00:41:24;;;;;;;8.93;8.07;;;;;;;;;;1906463;75;26197;-76
2022/09/25 00:43:55;;;;;;;9.13;8.27;;;;;;;;;;1907623;75;26207;-76
2022/09/25 00:46:25;;;;;;;8.93;8.43;;;;;;;;;;1906379;75;26755;-76
2022/09/25 00:48:55;;;;;;;8.80;8.00;;;;;;;;;;1907736;75;26233;-77
2022/09/25 00:51:28;;;;;;;9.37;8.67;;;;;;;;;;1906425;75;26181;-76
2022/09/25 00:53:57;;;;;;;9.13;8.43;;;;;;;;;;1907537;75;26718;-77
2022/09/25 00:56:26;;;;;;;9.40;8.43;;;;;;;;;;1906483;75;26210;-77
2022/09/25 00:58:54;;;;;;;8.87;8.27;;;;;;;;;;1907643;75;26770;-76
2022/09/25 01:01:22;;;;;;;8.83;8.23;;;;;;;;;;1907738;75;26194;-76
2022/09/25 01:03:51;;;;;;;8.73;8.03;;;;;;;;;;1906426;75;26314;-76
2022/09/25 01:06:20;;;;;;;8.80;8.13;;;;;;;;;;1907613;75;26275;-76
2022/09/25 01:08:49;;;;;;;9.03;8.23;;;;;;;;;;1906421;75;26258;-76
2022/09/25 01:11:17;;;;;;;9.53;8.13;;;;;;;;;;1907625;75;26667;-76
2022/09/25 01:13:46;;;;;;;9.37;8.67;;;;;;;;;;1907662;75;26694;-76
2022/09/25 01:16:16;;;;;;;9.47;8.57;;;;;;;;;;1906401;75;26282;-76
2022/09/25 01:18:48;;;;;;;9.00;8.17;;;;;;;;;;1907621;75;26706;-76
2022/09/25 01:21:26;;;;;;;10.00;9.10;;;;;;;;;;1907519;75;26651;-76
2022/09/25 01:24:32;;;;;;;9.83;9.00;;;;;;;;;;1907691;75;26299;-75
2022/09/25 01:27:37;;;;;;;10.47;9.67;;;;;;;;;;1907710;75;26289;-75
2022/09/25 01:30:08;;;;;;;10.13;9.27;;;;;;;;;;1906490;75;26615;-77
2022/09/25 01:32:40;;;;;;;10.40;9.33;;;;;;;;;;1907626;75;26659;-76
2022/09/25 01:35:11;;;;;;;9.87;9.00;;;;;;;;;;1907607;75;26219;-76
2022/09/25 01:37:43;;;;;;;10.20;9.37;;;;;;;;;;1907687;75;26247;-76
2022/09/25 01:40:13;;;;;;;10.03;9.10;;;;;;;;;;1906432;75;26714;-76
2022/09/25 01:42:43;;;;;;;9.63;8.93;;;;;;;;;;1907723;75;26681;-76
2022/09/25 01:45:15;;;;;;;10.37;9.40;;;;;;;;;;1906411;75;26244;-76
2022/09/25 01:47:45;;;;;;;9.97;9.07;;;;;;;;;;1907634;75;26223;-77
2022/09/25 01:50:16;;;;;;;10.03;9.23;;;;;;;;;;1906397;75;26180;-75
2022/09/25 01:52:46;;;;;;;10.13;9.13;;;;;;;;;;1907681;75;26618;-76
2022/09/25 01:55:16;;;;;;;9.63;8.87;;;;;;;;;;1907603;75;26203;-76
2022/09/25 01:57:48;;;;;;;10.77;9.40;;;;;;;;;;1906365;75;26181;-76
2022/09/25 02:00:18;;;;;;;10.77;9.87;;;;;;;;;;1907618;75;26198;-75
2022/09/25 02:02:48;;;;;;;9.90;9.07;;;;;;;;;;1907456;75;26199;-76
2022/09/25 02:05:19;;;;;;;10.80;9.90;;;;;;;;;;1906395;75;26185;-76
2022/09/25 02:07:49;;;;;;;10.60;9.53;;;;;;;;;;1907725;75;26279;-76
2022/09/25 02:10:20;;;;;;;9.93;9.30;;;;;;;;;;1906539;75;26209;-76
2022/09/25 02:12:49;;;;;;;10.13;9.23;;;;;;;;;;1907846;75;26286;-76
2022/09/25 02:15:20;;;;;;;9.63;8.83;;;;;;;;;;1907820;75;26320;-76
2022/09/25 02:20:40;;;;;;;10.17;9.23;;;;;;;;;;1906610;75;26209;-76
2022/09/25 02:23:08;;;;;;;9.40;8.80;;;;;;;;;;1907253;75;26285;-76
2022/09/25 02:25:38;;;;;;;9.87;9.07;;;;;;;;;;1907785;75;26704;-76
2022/09/25 02:28:06;;;;;;;9.13;8.40;;;;;;;;;;1906564;75;26202;-76
2022/09/25 02:30:35;;;;;;;9.40;8.60;;;;;;;;;;1907809;75;26308;-75
2022/09/25 02:33:03;;;;;;;9.00;8.13;;;;;;;;;;1906494;75;26177;-76
2022/09/25 02:35:32;;;;;;;9.33;8.47;;;;;;;;;;1907783;75;26224;-75
2022/09/25 02:38:01;;;;;;;8.90;8.30;;;;;;;;;;1907801;75;26646;-76
2022/09/25 02:40:32;;;;;;;9.03;8.30;;;;;;;;;;1906523;75;26660;-76
2022/09/25 02:43:02;;;;;;;9.63;8.73;;;;;;;;;;1907817;75;26658;-75
2022/09/25 02:45:33;;;;;;;9.00;8.17;;;;;;;;;;1907648;75;26231;-75
2022/09/25 02:48:09;;;;;;;9.47;8.73;;;;;;;;;;1907875;75;26678;-76
2022/09/25 02:50:39;;;;;;;9.47;8.67;;;;;;;;;;1906525;75;26201;-75
2022/09/25 02:53:09;;;;;;;9.77;8.77;;;;;;;;;;1907549;75;26687;-75
2022/09/25 02:55:40;;;;;;;10.50;8.83;;;;;;;;;;1906538;75;26290;-75
2022/09/25 02:58:10;;;;;;;11.97;9.07;;;;;;;;;;1907798;75;26231;-74
2022/09/25 03:00:39;;;;;;;11.37;8.87;;;;;;;;;;1906503;75;26300;-75
2022/09/25 03:03:10;;;;;;;8.97;8.17;;;;;;;;;;1907754;75;26199;-75
2022/09/25 03:05:38;;;;;;;9.10;8.30;;;;;;;;;;1907757;75;26718;-75
2022/09/25 03:10:53;;;;;;;8.57;7.70;;;;;;;;;;1906547;75;26185;-74
2022/09/25 03:13:25;;;;;;;8.70;7.90;;;;;;;;;;1907805;75;26223;-74
2022/09/25 03:15:54;;;;;;;8.43;7.77;;;;;;;;;;1907935;75;26216;-75
2022/09/25 03:18:24;;;;;;;8.10;7.33;;;;;;;;;;1906556;75;26205;-76
2022/09/25 03:20:52;;;;;;;8.43;7.77;;;;;;;;;;1907828;75;26410;-76
2022/09/25 03:23:21;;;;;;;9.30;8.60;;;;;;;;;;1906590;75;26189;-75
2022/09/25 03:25:52;;;;;;;8.17;7.53;;;;;;;;;;1907678;75;26183;-76
2022/09/25 03:28:21;;;;;;;9.27;8.40;;;;;;;;;;1907796;75;26223;-76
2022/09/25 03:30:57;;;;;;;9.43;8.47;;;;;;;;;;1907735;75;26229;-75
2022/09/25 03:33:26;;;;;;;9.23;8.30;;;;;;;;;;1906616;75;26210;-75
2022/09/25 03:36:01;;;;;;;9.13;8.23;;;;;;;;;;1907726;75;26191;-75
2022/09/25 03:38:30;;;;;;;10.00;9.00;;;;;;;;;;1906505;75;26306;-75
2022/09/25 03:40:58;;;;;;;9.40;8.70;;;;;;;;;;1907799;75;26217;-76
2022/09/25 03:43:26;;;;;;;10.80;9.27;;;;;;;;;;1906655;75;26237;-76
2022/09/25 03:45:55;;;;;;;9.37;8.53;;;;;;;;;;1907742;75;26690;-75
2022/09/25 03:48:23;;;;;;;9.67;8.87;;;;;;;;;;1906500;75;26198;-75
2022/09/25 03:50:52;;;;;;;10.07;9.23;;;;;;;;;;1907810;75;26752;-75
2022/09/25 03:53:20;;;;;;;11.23;9.73;;;;;;;;;;1906474;75;26204;-75
2022/09/25 03:55:49;;;;;;;10.97;8.97;;;;;;;;;;1907747;75;26275;-75
2022/09/25 03:58:18;;;;;;;10.07;9.17;;;;;;;;;;1906468;75;26189;-76
2022/09/25 04:00:46;;;;;;;10.70;9.73;;;;;;;;;;1870372;75;613760;-75
2022/09/25 04:03:15;;;;;;;10.63;9.73;;;;;;;;;;1797072;80;26263;-75
2022/09/25 04:05:45;;;;;;;11.80;10.60;;;;;;;;;;1783569;80;26298;-75
2022/09/25 04:08:13;;;;;;;11.43;10.27;;;;;;;;;;1814360;76;26249;-75
2022/09/25 04:10:42;;;;;;;11.00;10.03;;;;;;;;;;1814378;79;26200;-76
2022/09/25 04:13:11;;;;;;;10.40;9.40;;;;;;;;;;1796834;80;26435;-76
2022/09/25 04:15:39;;;;;;;10.13;9.33;;;;;;;;;;1796909;80;26227;-75
2022/09/25 04:18:08;;;;;;;10.00;9.10;;;;;;;;;;1783574;80;26219;-76
2022/09/25 04:20:37;;;;;;;9.63;8.80;;;;;;;;;;1796854;80;26346;-75
2022/09/25 04:23:06;;;;;;;10.10;9.20;;;;;;;;;;1783635;80;26220;-75
2022/09/25 04:25:34;;;;;;;11.70;9.77;;;;;;;;;;1796818;80;26231;-76
2022/09/25 04:28:04;;;;;;;10.67;9.70;;;;;;;;;;1796852;80;26294;-76
2022/09/25 04:30:33;;;;;;;11.03;9.97;;;;;;;;;;1796868;80;26212;-75
2022/09/25 04:35:47;;;;;;;11.47;10.33;;;;;;;;;;1797025;80;26244;-74
2022/09/25 04:38:16;;;;;;;11.33;10.00;;;;;;;;;;1814429;79;26296;-74
2022/09/25 04:40:45;;;;;;;11.00;9.90;;;;;;;;;;1814352;79;26672;-75
2022/09/25 04:43:13;;;;;;;12.93;10.27;;;;;;;;;;1796885;80;26320;-74
2022/09/25 04:45:42;;;;;;;11.50;10.47;;;;;;;;;;1814278;79;26328;-75
2022/09/25 04:48:10;;;;;;;11.53;9.80;;;;;;;;;;1796815;80;26765;-75
2022/09/25 04:53:34;;;;;;;10.60;9.70;;;;;;;9.11;100.00;100520.09;2044295;69;27347;-75
2022/09/25 04:56:06;;;;;;;11.17;10.27;;;;;;;9.03;100.00;100501.25;1974336;72;26359;-74
2022/09/25 04:58:37;;;;;;;12.20;10.00;;;;;;;9.08;100.00;100499.30;1931725;74;26610;-75
2022/09/25 05:01:09;;;;;;;11.10;10.20;;;;;;;8.85;100.00;100501.34;1923650;73;26235;-75
2022/09/25 05:03:39;;;;;;;11.27;10.37;;;;;;;8.79;100.00;100504.40;1929619;73;26732;-75
2022/09/25 05:06:09;;;;;;;12.43;10.50;;;;;;;8.83;100.00;100506.88;1926519;73;26550;-75
2022/09/25 05:08:40;;;;;;;11.20;10.27;;;;;;;8.81;100.00;100504.97;1931733;73;26285;-75
2022/09/25 05:11:17;;;;;;;11.23;10.33;;;;;;;8.87;100.00;100505.20;1926419;73;26324;-74
2022/09/25 05:13:51;;;;;;;10.47;9.53;;;;;;;8.76;100.00;100508.58;1974140;72;26285;-75
2022/09/25 05:16:21;;;;;;;10.37;9.47;;;;;;;8.73;100.00;100511.89;1973624;72;26182;-75
2022/09/25 05:18:52;;;;;;;11.30;10.40;;;;;;;8.73;100.00;100505.55;1968359;72;26333;-74
2022/09/25 05:21:22;;;;;;;11.07;10.07;;;;;;;8.70;100.00;100508.30;1928269;74;26227;-75
2022/09/25 05:23:52;;;;;;;10.97;10.07;;;;;;;8.66;100.00;100503.89;1974095;71;26178;-76
2022/09/25 05:26:22;;;;;;;10.57;9.60;;;;;;;8.68;100.00;100506.39;1973176;73;26187;-75
2022/09/25 05:28:53;;;;;;;10.70;9.83;;;;;;;8.59;100.00;100504.75;1972839;72;26282;-75
2022/09/25 05:31:24;;;;;;;10.77;9.90;;;;;;;8.57;100.00;100502.80;1970222;72;26189;-75
2022/09/25 05:33:54;;;;;;;10.23;9.43;;;;;;;8.59;100.00;100499.21;1974012;72;26226;-75
2022/09/25 05:36:25;;;;;;;10.90;9.87;;;;;;;8.54;100.00;100501.16;1974243;73;26303;-75
2022/09/25 05:38:56;;;;;;;10.63;9.57;;;;;;;8.36;100.00;100503.95;1973180;71;26516;-75
2022/09/25 05:41:26;;;;;;;11.40;10.30;;;;;;;8.43;100.00;100500.33;1972057;72;26292;-75
2022/09/25 05:43:57;;;;;;;10.50;9.50;;;;;;;8.36;100.00;100501.19;1927483;74;26176;-76
2022/09/25 05:46:27;;;;;;;11.30;10.30;;;;;;;8.39;100.00;100507.53;1936285;73;26279;-76
2022/09/25 05:48:58;;;;;;;10.87;9.50;;;;;;;8.38;100.00;100510.05;1884571;74;26233;-76
2022/09/25 05:51:28;;;;;;;11.00;9.97;;;;;;;8.39;100.00;100511.69;1870239;76;26668;-77
2022/09/25 05:53:59;;;;;;;10.10;9.20;;;;;;;8.31;100.00;100499.80;1904987;74;26235;-76
2022/09/25 05:56:29;;;;;;;10.27;9.57;;;;;;;8.41;100.00;100504.50;1872426;76;26257;-77
2022/09/25 05:58:59;;;;;;;10.77;9.87;;;;;;;8.40;100.00;100503.66;1939198;74;26224;-76
2022/09/25 06:01:29;;;;;;;10.90;9.80;;;;;;;8.42;100.00;100503.39;1939452;74;26301;-76
2022/09/25 06:03:59;;;;;;;11.27;10.23;;;;;;;8.27;100.00;100506.97;1938712;74;26192;-77
2022/09/25 06:06:31;;;;;;;10.40;9.50;;;;;;;8.17;100.00;100508.38;1897826;75;26179;-77
2022/09/25 06:09:01;;;;;;;9.80;9.07;;;;;;;8.11;100.00;100513.62;1938599;74;26269;-76
2022/09/25 06:11:31;;;;;;;11.47;10.30;;;;;;;8.36;100.00;100512.25;1938345;74;26187;-78
2022/09/25 06:14:02;;;;;;;10.67;9.87;;;;;;;8.36;100.00;100521.10;1897755;75;26714;-77
2022/09/25 06:16:33;;;;;;;10.37;9.67;;;;;;;8.34;100.00;100512.27;1938519;74;26621;-77
2022/09/25 06:19:03;;;;;;;10.87;9.90;;;;;;;8.31;100.00;100516.41;1938528;74;26261;-77
2022/09/25 06:21:33;;;;;;;9.60;8.90;;;;;;;8.37;100.00;100517.23;1938620;74;26254;-77
2022/09/25 06:24:03;;;;;;;10.87;9.87;;;;;;;8.50;100.00;100516.66;1938587;74;26165;-76
2022/09/25 06:26:35;;;;;;;10.80;9.57;;;;;;;8.49;100.00;100515.83;1938653;74;26169;-76
2022/09/25 06:29:06;;;;;;;9.83;8.90;;;;;;;8.49;100.00;100521.91;1938637;74;26546;-76
2022/09/25 06:31:38;;;;;;;10.40;9.33;;;;;;;8.48;100.00;100511.95;1938493;74;26333;-76
2022/09/25 06:37:10;;;;;;;10.37;9.60;;;;;;;8.77;100.00;100553.72;2013844;71;27597;-74
2022/09/25 06:39:41;;;;;;;10.10;9.30;;;;;;;8.88;100.00;100518.78;1950374;73;26168;-74
2022/09/25 06:42:11;;;;;;;10.40;9.37;;;;;;;8.84;100.00;100524.61;1950408;73;26176;-74
2022/09/25 06:44:42;;;;;;;9.53;8.83;;;;;;;9.04;100.00;100527.30;1935838;73;26696;-74
2022/09/25 06:47:12;;;;;;;10.40;9.47;;;;;;;9.31;100.00;100521.37;1916947;75;26635;-80
2022/09/25 06:49:42;;;;;;;11.07;10.00;;;;;;;9.35;100.00;100530.77;1916939;75;26183;-80
2022/09/25 06:52:12;;;;;;;10.17;9.37;;;;;;;9.27;100.00;100531.92;1917251;75;26195;-80
2022/09/25 06:54:42;;;;;;;10.40;9.40;;;;;;;9.22;100.00;100527.78;1917341;75;26288;-80
2022/09/25 06:57:13;;;;;;;9.90;9.00;;;;;;;9.32;100.00;100524.42;1916729;75;26244;-78
2022/09/25 06:59:43;;;;;;;10.53;9.60;;;;;;;9.47;100.00;100534.58;1916685;75;26174;-83
2022/09/25 07:05:01;;;;;;;10.57;9.77;;;;;;;9.69;100.00;100530.84;1916753;75;26207;-81
2022/09/25 07:07:31;;;;;;;9.97;9.17;;;;;;;10.04;100.00;100528.38;1916672;75;26626;-80
2022/09/25 07:10:01;;;;;;;9.63;8.97;;;;;;;10.25;100.00;100527.68;1916565;75;26685;-81
2022/09/25 07:12:33;;;;;;;10.43;9.40;;;;;;;10.33;100.00;100527.88;1916636;75;26183;-80
2022/09/25 07:15:03;;;;;;;10.37;9.57;;;;;;;10.52;100.00;100521.05;1916652;75;26729;-81
2022/09/25 07:17:33;;;;;;;10.27;9.53;;;;;;;10.62;100.00;100521.48;1916800;75;26268;-81
2022/09/25 07:20:06;;;;;;;11.20;10.40;;;;;;;10.92;100.00;100511.43;1877001;76;26201;-81
2022/09/25 07:22:36;;;;;;;9.97;9.27;;;;;;;11.00;100.00;100503.83;1876854;76;26213;-81
2022/09/25 07:25:08;;;;;;;9.80;9.13;;;;;;;11.15;100.00;100505.60;1876850;76;26782;-81
2022/09/25 07:27:38;;;;;;;10.80;10.00;;;;;;;11.57;100.00;100501.40;1876706;76;26204;-79
2022/09/25 07:30:11;;;;;;;10.50;9.50;;;;;;;11.40;100.00;100500.53;1876644;76;26686;-81
2022/09/25 07:32:44;;;;;;;9.63;9.03;;;;;;;11.60;100.00;100499.96;1876730;76;26617;-81
2022/09/25 07:35:14;;;;;;;10.50;9.57;;;;;;;11.96;100.00;100498.33;1876827;75;26680;-81
2022/09/25 07:37:44;;;;;;;11.10;10.10;;;;;;;12.27;100.00;100494.48;1876764;76;26260;-81
2022/09/25 07:40:15;;;;;;;10.00;9.00;;;;;;;13.34;100.00;100486.27;1876759;76;26687;-81
2022/09/25 07:42:45;;;;;;;9.73;9.03;;;;;;;12.92;100.00;100487.41;1876840;76;26259;-81
2022/09/25 07:45:15;;;;;;;10.97;9.93;;;;;;;13.69;100.00;100488.25;1876837;76;26276;-81
2022/09/25 07:47:45;;;;;;;9.83;9.03;;;;;;;15.33;100.00;100476.84;1876239;76;26690;-80
2022/09/25 07:50:15;;;;;;;9.50;9.00;;;;;;;14.76;100.00;100469.00;1876111;76;26217;-80
2022/09/25 07:52:46;;;;;;;9.03;8.43;;;;;;;14.44;100.00;100474.37;1876294;76;26197;-81
2022/09/25 07:55:17;;;;;;;10.30;9.50;;;;;;;15.31;100.00;100459.58;1876258;76;26210;-81
2022/09/25 07:57:47;;;;;;;9.13;8.53;;;;;;;15.78;100.00;100451.41;1876117;76;26216;-81
2022/09/25 08:00:18;;;;;;;9.03;8.53;;;;;;;15.40;100.00;100457.59;1876166;76;26635;-80
2022/09/25 08:02:57;;;;;;;10.33;9.63;;;;;;;15.34;100.00;100456.69;1876276;76;26702;-81
2022/09/25 08:05:28;;;;;;;9.80;8.90;;;;;;;14.92;100.00;100459.06;1876257;76;26224;-80
2022/09/25 08:07:58;;;;;;;9.63;8.83;;;;;;;16.89;100.00;100451.76;1876186;76;26199;-80
2022/09/25 08:10:28;;;;;;;8.77;8.27;;;;;;;15.55;100.00;100460.53;1876181;76;26211;-80
2022/09/25 08:12:59;;;;;;;9.80;9.10;;;;;;;14.87;100.00;100468.16;1876127;76;26247;-82
2022/09/25 08:15:29;;;;;;;8.67;8.07;;;;;;;16.81;100.00;100459.03;1876062;76;26210;-77
2022/09/25 08:17:59;;;;;;;9.60;9.00;;;;;;;16.81;100.00;100459.03;1876119;76;24228;-78
2022/09/25 08:20:29;;;;;;;8.43;7.70;;;;;;;16.81;100.00;100459.03;1876119;76;24232;-78
2022/09/25 08:23:00;;;;;;;8.10;7.50;;;;;;;18.81;100.00;100452.31;1876210;76;26654;-77
2022/09/25 08:25:30;;;;;;;9.03;8.33;;;;;;;21.69;100.00;100448.88;1876286;76;24140;-77
2022/09/25 08:28:00;;;;;;;8.10;7.60;;;;;;;22.95;100.00;100455.28;1876254;76;24142;-78
2022/09/25 08:30:30;;;;;;;7.57;7.00;;;;;;;22.82;100.00;100446.75;1876109;76;24151;-78
2022/09/25 08:33:00;;;;;;;7.33;6.83;;;;;;;20.68;100.00;100452.20;1876226;76;24163;-77
2022/09/25 08:35:31;;;;;;;8.43;7.73;;;;;;;20.48;100.00;100446.22;1876073;76;24154;-77
2022/09/25 08:38:01;;;;;;;7.40;6.90;;;;;;;23.35;100.00;100438.55;1875997;76;24286;-78
2022/09/25 08:40:34;;;;;;;7.67;6.97;;;;;;;20.02;100.00;100449.95;1876122;76;24146;-78
2022/09/25 08:43:04;;;;;;;6.67;6.27;;;;;;;18.94;100.00;100455.38;1876127;76;24313;-78
2022/09/25 08:51:29;;;;;;;6.73;6.23;;;;;;;19.19;100.00;100455.37;2059966;69;25121;-78
2022/09/25 08:54:00;;;;;;;7.40;6.77;;;;;;;22.34;100.00;100443.99;2025868;71;24099;-75
2022/09/25 08:56:32;;;;;;;7.00;6.60;;;;;;;24.60;100.00;100473.09;2025797;71;24128;-77
2022/09/25 08:59:05;;;;;;;7.97;7.35;;;;;;;25.84;100.00;100425.17;1944882;73;24247;-77
2022/09/25 09:01:43;;;;;;;7.62;7.12;;;;;;;21.47;100.00;100442.53;1985297;72;24559;-78
2022/09/25 09:04:18;;;;;;;7.55;7.00;;;;;;;23.92;100.00;100438.77;1981620;72;24116;-77
2022/09/25 09:06:52;;;;;;;7.83;7.20;;;;;;;30.08;96.13;100452.85;1981628;72;24186;-78
2022/09/25 09:09:22;;;;;;;8.50;7.80;;;;;;;;;;1981526;72;24120;-78
2022/09/25 09:11:54;;;;;;;8.48;7.85;;;;;;;;;;1981716;72;24330;-78
2022/09/25 09:14:24;;;;;;;8.03;7.25;;;;;;;;;;1981645;72;24130;-78
2022/09/25 09:16:54;;;;;;;8.88;8.13;;;;;;;;;;1981504;72;24121;-77
2022/09/25 09:19:22;;;;;;;8.20;7.70;;;;;;;;;;1981668;72;24657;-78
2022/09/25 09:21:53;;;;;;;8.58;7.60;;;;;;;;;;1981552;72;24241;-78
2022/09/25 09:24:24;;;;;;;7.62;7.12;;;;;;;;;;1981512;72;24121;-77
2022/09/25 09:26:59;;;;;;;8.43;7.67;;;;;;;;;;1981483;72;24124;-77
2022/09/25 09:29:52;;;;;;;8.27;7.57;;;;;;;;;;1981394;72;24578;-77
2022/09/25 09:32:24;;;;;;;7.97;7.47;;;;;;;;;;1976577;72;24152;-76
2022/09/25 09:34:59;;;;;;;7.63;7.20;;;;;;;;;;1981515;72;24117;-77
2022/09/25 09:37:30;;;;;;;7.97;7.40;;;;;;;;;;1981303;72;24134;-77
2022/09/25 09:40:02;;;;;;;7.57;7.10;;;;;;;;;;1980984;72;24193;-78
2022/09/25 09:42:33;;;;;;;7.27;6.77;;;;;;;;;;1981595;72;24199;-77
2022/09/25 09:45:03;;;;;;;7.47;7.07;;;;;;;;;;1961135;72;24163;-78
2022/09/25 09:47:38;;;;;;;7.33;6.70;;;;;;;;;;1945923;74;24134;-78
2022/09/25 09:50:11;;;;;;;7.47;6.90;;;;;;;;;;1946252;73;24177;-78
2022/09/25 09:52:42;;;;;;;6.93;6.63;;;;;;;;;;1949347;73;26622;-78
2022/09/25 09:55:14;;;;;;;7.30;6.87;;;;;;;;;;1893746;76;24122;-77
2022/09/25 09:57:44;;;;;;;7.50;6.80;;;;;;;;;;1916473;75;24133;-78
2022/09/25 10:00:15;;;;;;;7.93;7.10;;;;;;;;;;1946116;73;26670;-77
2022/09/25 10:02:45;;;;;;;8.07;7.23;;;;;;;;;;1945508;73;24126;-78
2022/09/25 10:05:17;;;;;;;8.47;7.07;;;;;;;;;;1904596;75;26189;-78
2022/09/25 10:07:47;;;;;;;6.97;6.53;;;;;;;;;;1893062;75;26271;-82
2022/09/25 10:10:16;;;;;;;6.23;5.93;;;;;;;;;;1945512;74;26731;-85
2022/09/25 10:12:46;;;;;;;6.50;6.20;;;;;;;;;;1945456;74;26255;-84
2022/09/25 10:15:17;;;;;;;7.37;6.87;;;;;;;;;;1945599;74;24122;-82
2022/09/25 10:17:46;;;;;;;6.43;6.23;;;;;;;;;;1946756;73;24205;-82
2022/09/25 10:20:17;;;;;;;6.70;6.40;;;;;;;;;;1893316;76;24134;-79
2022/09/25 10:22:45;;;;;;;7.10;6.50;;;;;;;;;;1946257;74;24564;-80
2022/09/25 10:25:14;;;;;;;6.87;6.37;;;;;;;;;;1945462;74;24195;-80
2022/09/25 10:27:44;;;;;;;7.07;6.67;;;;;;;;;;1945681;74;24215;-80
2022/09/25 10:30:16;;;;;;;6.80;6.47;;;;;;;;;;1904652;75;24133;-80
2022/09/25 10:32:47;;;;;;;7.10;6.77;;;;;;;;;;1893174;76;24184;-79
2022/09/25 10:35:18;;;;;;;6.90;6.60;;;;;;;;;;1945659;74;24199;-81
2022/09/25 10:37:48;;;;;;;6.33;5.93;;;;;;;;;;1945502;74;24550;-77
2022/09/25 10:40:24;;;;;;;6.03;5.73;;;;;;;;;;1945981;74;24122;-78
2022/09/25 10:42:59;;;;;;;5.93;5.73;;;;;;;;;;1904774;75;26697;-77
2022/09/25 10:45:30;;;;;;;6.40;6.07;;;;;;;;;;1893152;76;26690;-79
2022/09/25 10:50:45;;;;;;;6.90;6.50;;;;;;;;;;1945533;73;24719;-78
2022/09/25 10:53:27;;;;;;;6.57;6.27;;;;;;;;;;1945720;74;24115;-77
2022/09/25 10:55:59;;;;;;;6.77;6.47;;;;;;;;;;1904884;75;26230;-78
2022/09/25 10:58:28;;;;;;;6.53;6.20;;;;;;;;;;1945513;74;26673;-78
2022/09/25 11:00:58;;;;;;;6.13;5.90;;;;;;;;;;1949503;73;24128;-78
2022/09/25 11:03:29;;;;;;;6.27;6.00;;;;;;;;;;1893212;75;24134;-78
2022/09/25 11:05:58;;;;;;;5.73;5.53;;;;;;;;;;1945652;73;24110;-78
2022/09/25 11:08:28;;;;;;;6.30;6.00;;;;;;;;;;1945565;74;26184;-78
2022/09/25 11:10:58;;;;;;;6.60;6.30;;;;;;;;;;1945568;74;24577;-78
2022/09/25 11:13:27;;;;;;;6.43;6.20;;;;;;;;;;1904681;75;26721;-78
2022/09/25 11:15:58;;;;;;;6.60;6.30;;;;;;;;;;1893202;76;24127;-76
2022/09/25 11:18:45;;;;;;;6.47;6.07;;;;;;;;;;1945622;74;24191;-80
2022/09/25 11:21:21;;;;;;;6.43;6.23;;;;;;;;;;1945392;74;26655;-78
2022/09/25 11:23:56;;;;;;;7.03;6.60;;;;;;;;;;1945703;73;24115;-78
2022/09/25 11:26:26;;;;;;;7.20;6.80;;;;;;;;;;1949509;73;24201;-79
2022/09/25 11:28:56;;;;;;;6.90;6.60;;;;;;;;;;1893314;76;24143;-80
2022/09/25 11:31:26;;;;;;;6.43;6.23;;;;;;;;;;1945506;74;26330;-80
2022/09/25 11:33:57;;;;;;;6.03;5.83;;;;;;;;;;1945611;74;24130;-79
2022/09/25 11:36:28;;;;;;;6.40;6.10;;;;;;;;;;1945666;74;24126;-79
2022/09/25 11:41:46;;;;;;;6.30;6.10;;;;;;;;;;1893239;75;24161;-78
2022/09/25 11:44:21;;;;;;;6.37;5.97;;;;;;;;;;1945609;73;24596;-78
2022/09/25 11:46:52;;;;;;;6.50;6.20;;;;;;;;;;1945731;74;24122;-79
2022/09/25 11:49:23;;;;;;;6.83;6.43;;;;;;;;;;1945888;74;26183;-80
2022/09/25 11:52:05;;;;;;;6.53;6.23;;;;;;;;;;1945638;73;24177;-79
2022/09/25 11:54:35;;;;;;;6.47;6.07;;;;;;;;;;1949406;73;24205;-79
2022/09/25 11:57:06;;;;;;;6.13;5.83;;;;;;;;;;1893297;75;24228;-80
2022/09/25 11:59:38;;;;;;;6.60;6.30;;;;;;;;;;1945782;74;24121;-80
2022/09/25 12:02:12;;;;;;;6.47;6.17;;;;;;;;;;1912296;75;26776;-79
2022/09/25 12:04:45;;;;;;;6.20;5.93;;;;;;;;;;1911826;75;24143;-80
2022/09/25 12:07:21;;;;;;;6.47;6.17;;;;;;;;;;1949756;73;24121;-80
2022/09/25 12:10:03;;;;;;;6.73;6.53;;;;;;;;;;1945509;74;24597;-79
2022/09/25 12:12:34;;;;;;;6.50;6.30;;;;;;;;;;1945907;74;24122;-79
2022/09/25 12:15:04;;;;;;;6.50;6.30;;;;;;;;;;1945738;73;24158;-79
2022/09/25 12:17:36;;;;;;;5.97;5.77;;;;;;;;;;1949508;73;26390;-80
2022/09/25 12:20:07;;;;;;;6.47;6.27;;;;;;;;;;1893672;75;24131;-80
2022/09/25 12:22:39;;;;;;;6.97;6.77;;;;;;;;;;1916098;75;24557;-79
2022/09/25 12:25:10;;;;;;;6.87;6.67;;;;;;;;;;1916345;75;24137;-79
2022/09/25 12:27:42;;;;;;;6.43;6.23;;;;;;;;;;1945601;73;24604;-80
2022/09/25 12:30:15;;;;;;;6.30;6.00;;;;;;;;;;1945933;74;24130;-80
2022/09/25 12:32:49;;;;;;;6.30;6.10;;;;;;;;;;1945785;73;24130;-80
2022/09/25 12:35:21;;;;;;;6.12;5.92;;;;;;;;;;1949906;73;24164;-80
2022/09/25 12:37:51;;;;;;;5.97;5.77;;;;;;;;;;1893126;75;24140;-80
2022/09/25 12:40:22;;;;;;;6.33;6.13;;;;;;;;;;1945753;74;24125;-80
2022/09/25 12:42:54;;;;;;;5.97;5.77;;;;;;;;;;1945771;74;24134;-80
2022/09/25 12:45:25;;;;;;;5.80;5.47;;;;;;;;;;1945676;72;24204;-79
2022/09/25 12:47:58;;;;;;;5.63;5.43;;;;;;;;;;1945730;73;24122;-80
2022/09/25 12:50:28;;;;;;;6.80;6.50;;;;;;;;;;1949617;73;24131;-80
2022/09/25 12:52:58;;;;;;;5.87;5.67;;;;;;;;;;1893294;74;24264;-80
2022/09/25 12:55:30;;;;;;;6.07;5.77;;;;;;;;;;1945784;73;24210;-80
2022/09/25 12:58:01;;;;;;;6.20;6.00;;;;;;;;;;1945661;74;24527;-80
2022/09/25 13:00:31;;;;;;;5.87;5.47;;;;;;;;;;1945806;73;26309;-80
2022/09/25 13:03:01;;;;;;;6.27;5.87;;;;;;;;;;1905096;75;24201;-80
2022/09/25 13:05:32;;;;;;;6.08;5.87;;;;;;;;;;1893356;76;24190;-79
2022/09/25 13:08:05;;;;;;;5.78;5.55;;;;;;;;;;1916256;75;24134;-80
2022/09/25 13:10:35;;;;;;;5.87;5.67;;;;;;;;;;1945756;73;24133;-79
2022/09/25 13:13:05;;;;;;;6.30;6.00;;;;;;;;;;1945859;74;24130;-80
2022/09/25 13:15:35;;;;;;;6.30;6.10;;;;;;;;;;1945755;73;24131;-79
2022/09/25 13:18:04;;;;;;;6.30;6.10;;;;;;;;;;1949709;73;24240;-79
2022/09/25 13:20:50;;;;;;;6.43;6.23;;;;;;;;;;1893360;76;24161;-79
2022/09/25 13:23:23;;;;;;;5.93;5.73;;;;;;;;;;1916145;75;24246;-80
2022/09/25 13:25:56;;;;;;;6.03;5.83;;;;;;;;;;1916264;75;24203;-80
2022/09/25 13:28:25;;;;;;;6.23;6.03;;;;;;;;;;1945054;73;24165;-80
2022/09/25 13:31:01;;;;;;;5.80;5.60;;;;;;;;;;1945687;73;24135;-80
2022/09/25 13:33:31;;;;;;;5.90;5.70;;;;;;;;;;1904939;75;24137;-79
2022/09/25 13:36:07;;;;;;;6.00;5.80;;;;;;;;;;1912203;75;26809;-79
2022/09/25 13:41:28;;;;;;;5.67;5.47;;;;;;;;;;1912236;75;24645;-80
2022/09/25 13:44:15;;;;;;;5.75;5.55;;;;;;;;;;1945752;72;24207;-80
2022/09/25 13:46:44;;;;;;;5.70;5.50;;;;;;;;;;1945796;73;24196;-79
2022/09/25 13:49:31;;;;;;;5.63;5.43;;;;;;;;;;1905012;75;24608;-79
2022/09/25 13:51:59;;;;;;;6.17;5.97;;;;;;;;;;1893374;74;24630;-78
2022/09/25 13:54:28;;;;;;;5.80;5.60;;;;;;;;;;1945959;73;24110;-79
2022/09/25 13:56:56;;;;;;;6.30;6.10;;;;;;;;;;1945752;74;24122;-79
2022/09/25 13:59:38;;;;;;;6.25;6.05;;;;;;;;;;1946006;73;26666;-79
2022/09/25 14:02:25;;;;;;;6.50;5.90;;;;;;;;;;1905156;75;24650;-80
2022/09/25 14:04:55;;;;;;;5.90;5.70;;;;;;;;;;1893507;76;24193;-79
2022/09/25 14:07:25;;;;;;;6.57;6.27;;;;;;;;;;1916518;75;24178;-79
2022/09/25 14:09:55;;;;;;;5.73;5.53;;;;;;;;;;1946198;73;24123;-79
2022/09/25 14:12:28;;;;;;;6.13;5.93;;;;;;;;;;1946692;74;24181;-79
2022/09/25 14:14:59;;;;;;;6.50;6.30;;;;;;;;;;1949897;73;24559;-79
2022/09/25 14:17:30;;;;;;;6.43;6.23;;;;;;;;;;1893556;75;24140;-79
2022/09/25 14:20:00;;;;;;;7.10;6.80;;;;;;;;;;1945970;74;24126;-79
2022/09/25 14:22:31;;;;;;;6.37;6.07;;;;;;;;;;1946012;74;24126;-79